Time;durP1;ratioP1;P1;durP2;ratioP2;P2;SDS_P1;SDS_P2;PMS_P1;PMS_P2;Temp;Humidity;BMP_temperature;BMP_pressure;BME280_temperature;BME280_humidity;BME280_pressure;Samples;Min_cycle;Max_cycle;Signal;HPM_P1;HPM_P2
2023/01/16 00:02:23;;;;;;;;;;;;;;;;;;;;;
2023/01/16 00:12:07;;;;;;;;;1.00;1.00;;;;;8.02;68.67;99300.84;6019918;23;45455;-85
2023/01/16 00:26:36;;;;;;;;;;;;;;;;;;;;;
2023/01/16 00:36:13;;;;;;;;;2.00;2.00;;;;;8.29;68.55;99140.47;5956589;23;44874;-83
2023/01/16 00:38:50;;;;;;;;;;;;;;;;;;;;;
2023/01/16 00:41:19;;;;;;;;;2.50;0.50;;;;;8.18;68.42;99077.78;6011338;23;72020;-88
2023/01/16 00:43:47;;;;;;;;;2.25;0.75;;;;;8.23;68.48;99076.78;6100967;22;45404;-88
2023/01/16 00:46:12;;;;;;;;;1.00;1.00;;;;;8.35;68.75;99074.78;6193711;22;45612;-88
2023/01/16 00:48:40;;;;;;;;;1.00;0.00;;;;;8.22;68.24;99046.25;6191135;22;47144;-89
2023/01/16 00:51:06;;;;;;;;;2.25;1.00;;;;;8.23;68.58;99051.44;6193170;22;45227;-88
2023/01/16 00:53:33;;;;;;;;;0.25;0.25;;;;;8.29;68.58;99032.97;6192451;22;45340;-90
2023/01/16 00:56:02;;;;;;;;;1.50;0.50;;;;;8.40;68.66;99040.63;6191720;22;45705;-89
2023/01/16 00:58:27;;;;;;;;;2.00;1.00;;;;;8.39;68.69;99026.66;6192451;22;48152;-88
2023/01/16 01:00:53;;;;;;;;;3.00;2.00;;;;;8.40;68.66;99006.53;6192550;22;45359;-89
2023/01/16 01:03:21;;;;;;;;;1.00;1.00;;;;;8.27;68.45;98969.22;6193371;22;45258;-90
2023/01/16 01:05:57;;;;;;;;;;;;;;;;;;;;;
2023/01/16 01:08:49;;;;;;;;;0.25;0.25;;;;;8.24;68.40;98923.88;6220281;22;74284;-90
2023/01/16 01:15:25;;;;;;;;;;;;;;;;;;;;;
2023/01/16 01:18:10;;;;;;;;;;;;;;;;;;;;;
2023/01/16 01:21:37;;;;;;;;;1.00;0.75;;;;;8.29;68.35;98856.47;6222131;22;73804;-90
2023/01/16 01:24:50;;;;;;;;;;;;;;;;;;;;;
2023/01/16 01:27:17;;;;;;;;;3.00;1.00;;;;;8.38;68.50;98807.25;6219870;22;45271;-88
2023/01/16 01:29:53;;;;;;;;;;;;;;;;;;;;;
2023/01/16 01:32:18;;;;;;;;;1.00;1.00;;;;;8.43;68.32;98770.47;6218441;22;75213;-88
2023/01/16 01:34:51;;;;;;;;;2.00;1.00;;;;;8.40;68.61;98760.06;6193018;22;45692;-89
2023/01/16 01:37:19;;;;;;;;;2.00;0.75;;;;;8.44;68.38;98780.06;6200786;22;45438;-89
2023/01/16 01:39:45;;;;;;;;;1.00;1.00;;;;;8.35;68.57;98712.97;6160449;23;45459;-89
2023/01/16 01:45:10;;;;;;;;;0.25;0.25;;;;;8.46;68.79;98724.97;6161596;23;45183;-88
2023/01/16 01:47:43;;;;;;;;;1.50;0.00;;;;;8.32;68.62;98668.50;6160064;23;45319;-89
2023/01/16 01:50:45;;;;;;;;;0.75;0.75;;;;;8.35;68.85;98651.81;6159833;23;45181;-88
2023/01/16 01:53:30;;;;;;;;;1.00;1.00;;;;;8.33;69.28;98646.59;6158480;23;47142;-89
2023/01/16 01:56:24;;;;;;;;;0.75;0.00;;;;;8.24;69.25;98612.81;6158439;23;45213;-88
2023/01/16 01:58:56;;;;;;;;;1.75;1.25;;;;;8.38;69.47;98609.78;6157341;23;44801;-89
2023/01/16 02:01:33;;;;;;;;;0.75;0.00;;;;;8.38;69.71;98613.25;6159482;23;45347;-89
2023/01/16 02:04:06;;;;;;;;;1.25;0.00;;;;;8.34;69.76;98597.66;6159304;23;46890;-90
2023/01/16 02:07:02;;;;;;;;;;;;;;;;;;;;;
2023/01/16 02:09:28;;;;;;;;;2.50;0.75;;;;;8.32;70.28;98563.63;6159761;23;67863;-88
2023/01/16 02:12:08;;;;;;;;;0.00;0.00;;;;;8.29;70.60;98555.84;6159442;23;45734;-89
2023/01/16 02:14:37;;;;;;;;;0.00;0.00;;;;;8.27;70.66;98548.94;6158248;23;48422;-88
2023/01/16 02:19:58;;;;;;;;;0.50;0.50;;;;;8.15;71.37;98519.59;6159435;23;45707;-88
2023/01/16 02:23:01;;;;;;;;;1.00;0.00;;;;;8.13;71.71;98518.75;6163331;23;45365;-88
2023/01/16 02:25:54;;;;;;;;;1.00;1.00;;;;;8.07;72.02;98490.13;6159052;23;47127;-90
2023/01/16 02:28:50;;;;;;;;;0.50;0.50;;;;;8.02;72.51;98457.06;6157239;23;45337;-90
2023/01/16 02:35:37;;;;;;;;;;;;;;;;;;;;;
2023/01/16 02:38:21;;;;;;;;;0.00;0.00;;;;;7.76;72.82;98406.34;6130270;23;74459;-88
2023/01/16 02:41:06;;;;;;;;;0.50;0.50;;;;;7.88;73.07;98423.44;6157411;23;45181;-89
2023/01/16 02:46:40;;;;;;;;;0.00;0.00;;;;;7.68;73.10;98375.16;6155003;23;46431;-89
2023/01/16 02:49:46;;;;;;;;;2.00;0.00;;;;;7.72;73.12;98382.03;6164016;23;47093;-88
2023/01/16 02:52:55;;;;;;;;;0.00;0.00;;;;;7.82;72.93;98392.22;6156756;23;45425;-89
2023/01/16 02:55:39;;;;;;;;;1.50;0.00;;;;;7.81;73.26;98383.50;6165140;23;45175;-89
2023/01/16 02:58:11;;;;;;;;;0.00;0.00;;;;;7.66;73.17;98334.19;6158425;23;45303;-87
2023/01/16 03:01:15;;;;;;;;;0.00;0.00;;;;;7.69;73.38;98352.44;6161146;23;45331;-88
2023/01/16 03:04:08;;;;;;;;;0.00;0.00;;;;;7.84;73.44;98343.25;6182672;23;45391;-88
2023/01/16 03:07:17;;;;;;;;;0.00;0.00;;;;;7.70;73.08;98320.13;6157635;23;45252;-89
2023/01/16 03:14:17;;;;;;;;;;;;;;;;;;;;;
2023/01/16 03:16:53;;;;;;;;;1.00;0.00;;;;;7.58;73.48;98258.50;6060661;23;45478;-89
2023/01/16 03:20:02;;;;;;;;;;;;;;;;;;;;;
2023/01/16 03:22:59;;;;;;;;;0.00;0.00;;;;;7.60;73.34;98251.47;6158403;23;72738;-87
2023/01/16 03:26:12;;;;;;;;;0.25;0.00;;;;;7.69;73.54;98266.88;6154576;23;47723;-88
2023/01/16 03:28:48;;;;;;;;;0.00;0.00;;;;;7.65;73.42;98244.31;6158968;23;45139;-88
2023/01/16 03:31:44;;;;;;;;;0.00;0.00;;;;;7.62;73.52;98241.81;6158586;23;45199;-88
2023/01/16 03:34:34;;;;;;;;;0.00;0.00;;;;;7.60;73.97;98259.31;6157740;23;45386;-87
2023/01/16 03:37:06;;;;;;;;;0.00;0.00;;;;;7.59;74.08;98220.97;6167438;22;46554;-89
2023/01/16 03:39:46;;;;;;;;;0.00;0.00;;;;;7.42;73.96;98179.59;6193205;22;45331;-89
2023/01/16 03:42:46;;;;;;;;;0.00;0.00;;;;;7.57;73.87;98201.81;6193144;22;45240;-89
2023/01/16 03:48:53;;;;;;;;;0.00;0.00;;;;;7.57;73.76;98177.41;6207012;22;46091;-90
2023/01/16 03:51:33;;;;;;;;;0.00;0.00;;;;;7.48;73.74;98163.72;6195251;22;45215;-89
2023/01/16 03:54:29;;;;;;;;;0.00;0.00;;;;;7.59;73.53;98149.41;6194741;22;45327;-90
2023/01/16 03:57:50;;;;;;;;;;;;;;;;;;;;;
2023/01/16 04:00:56;;;;;;;;;;;;;;;;;;;;;
2023/01/16 04:03:34;;;;;;;;;0.00;0.00;;;;;7.52;73.16;98138.28;6221853;22;71964;-89
2023/01/16 04:06:13;;;;;;;;;0.00;0.00;;;;;7.50;72.72;98140.94;6195594;22;45189;-90
2023/01/16 04:08:49;;;;;;;;;0.00;0.00;;;;;7.45;72.56;98111.44;6196467;22;45124;-90
2023/01/16 04:11:21;;;;;;;;;0.00;0.00;;;;;7.39;72.39;98105.56;6194955;22;47217;-89
2023/01/16 04:14:11;;;;;;;;;0.00;0.00;;;;;7.22;72.62;98119.22;6194729;22;45218;-88
2023/01/16 04:16:49;;;;;;;;;0.00;0.00;;;;;7.39;72.48;98100.34;6193712;22;45380;-90
2023/01/16 04:19:41;;;;;;;;;0.00;0.00;;;;;7.30;72.31;98091.03;6193651;22;45309;-87
2023/01/16 04:22:19;;;;;;;;;0.00;0.00;;;;;7.35;72.35;98088.25;6193392;22;47194;-87
2023/01/16 04:25:08;;;;;;;;;0.00;0.00;;;;;7.34;72.60;98090.03;6193938;22;44720;-87
2023/01/16 04:27:34;;;;;;;;;0.00;0.00;;;;;7.31;72.37;98084.91;6192560;22;45268;-89
2023/01/16 04:30:05;;;;;;;;;0.00;0.00;;;;;7.21;72.41;98073.03;6223870;22;45430;-87
2023/01/16 04:32:31;;;;;;;;;0.00;0.00;;;;;7.12;72.06;98047.19;6198705;22;47963;-89
2023/01/16 04:35:05;;;;;;;;;0.00;0.00;;;;;7.02;72.14;98018.69;6197649;22;45307;-87
2023/01/16 04:37:31;;;;;;;;;0.00;0.00;;;;;7.17;72.16;98056.56;6194498;22;45142;-89
2023/01/16 04:40:14;;;;;;;;;;;;;;;;;;;;;
2023/01/16 04:42:48;;;;;;;;;0.00;0.00;;;;;7.21;72.06;98047.69;6220612;22;74513;-88
2023/01/16 04:45:26;;;;;;;;;0.00;0.00;;;;;7.24;72.08;98012.72;6193741;22;45403;-88
2023/01/16 04:47:52;;;;;;;;;0.00;0.00;;;;;7.10;71.40;97970.50;6193700;22;44629;-89
2023/01/16 04:50:27;;;;;;;;;0.00;0.00;;;;;7.12;71.49;97959.09;6194864;22;45267;-89
2023/01/16 04:53:05;;;;;;;;;;;;;;;;;;;;;
2023/01/16 04:55:31;;;;;;;;;1.00;0.00;;;;;7.19;71.25;97946.63;6221798;22;72109;-88
2023/01/16 04:57:59;;;;;;;;;0.00;0.00;;;;;7.32;71.32;97960.13;6195924;22;45307;-90
2023/01/16 05:00:33;;;;;;;;;0.00;0.00;;;;;7.31;71.41;97942.75;6195759;22;45543;-89
2023/01/16 05:03:02;;;;;;;;;0.00;0.00;;;;;7.25;71.48;97930.72;6196048;22;47502;-87
2023/01/16 05:05:29;;;;;;;;;0.00;0.00;;;;;7.33;71.71;97943.53;6195223;22;45157;-88
2023/01/16 05:10:41;;;;;;;;;0.75;0.00;;;;;7.26;71.75;97919.34;6222029;22;45297;-87
2023/01/16 05:13:09;;;;;;;;;0.00;0.00;;;;;7.35;71.91;97924.25;6224748;22;45351;-88
2023/01/16 05:15:41;;;;;;;;;0.00;0.00;;;;;7.35;72.32;97916.41;6196875;22;45279;-88
2023/01/16 05:18:09;;;;;;;;;0.00;0.00;;;;;7.37;72.33;97892.78;6197800;22;45349;-88
2023/01/16 05:20:41;;;;;;;;;0.00;0.00;;;;;7.24;72.34;97876.69;6195838;22;45383;-87
2023/01/16 05:23:10;;;;;;;;;1.00;1.00;;;;;7.37;72.68;97864.84;6196510;22;47002;-87
2023/01/16 05:25:36;;;;;;;;;0.00;0.00;;;;;7.34;73.07;97846.66;6221304;22;45124;-87
2023/01/16 05:28:10;;;;;;;;;0.00;0.00;;;;;7.51;73.41;97862.59;6195048;22;44718;-88
2023/01/16 05:30:41;;;;;;;;;0.00;0.00;;;;;7.51;73.29;97843.38;6194694;22;44748;-90
2023/01/16 05:33:06;;;;;;;;;0.00;0.00;;;;;7.58;73.46;97816.06;6193842;22;47926;-87
2023/01/16 05:35:34;;;;;;;;;0.50;0.50;;;;;7.55;73.53;97813.56;6195504;22;45341;-87
2023/01/16 05:38:00;;;;;;;;;0.00;0.00;;;;;7.55;73.55;97803.09;6193699;22;45439;-88
2023/01/16 05:40:25;;;;;;;;;2.00;1.00;;;;;7.66;73.39;97802.69;6195196;22;45218;-86
2023/01/16 05:42:54;;;;;;;;;1.00;1.00;;;;;7.65;73.45;97785.28;6196638;22;46810;-88
2023/01/16 05:45:26;;;;;;;;;0.00;0.00;;;;;7.79;73.55;97806.50;6199642;22;45190;-90
2023/01/16 05:48:31;;;;;;;;;;;;;;;;;;;;;
2023/01/16 05:50:58;;;;;;;;;;;;;;;;;;;;;
2023/01/16 05:53:27;;;;;;;;;0.00;0.00;;;;;7.81;73.49;97765.41;6225172;22;74325;-90
2023/01/16 05:55:59;;;;;;;;;0.00;0.00;;;;;7.81;73.84;97747.09;6199791;22;45394;-91
2023/01/16 05:58:42;;;;;;;;;;;;;;;;;;;;;
2023/01/16 06:04:24;;;;;;;;;;;;;;;;;;;;;
2023/01/16 06:07:01;;;;;;;;;0.00;0.00;;;;;7.69;73.08;97743.19;6223765;22;70999;-90
2023/01/16 06:09:49;;;;;;;;;0.00;0.00;;;;;7.77;72.52;97782.16;6227586;22;44797;-91
2023/01/16 06:12:24;;;;;;;;;0.00;0.00;;;;;7.74;72.93;97756.09;6239628;22;44755;-90
2023/01/16 06:14:50;;;;;;;;;1.25;0.25;;;;;7.77;72.89;97750.72;6211167;22;47192;-88
2023/01/16 06:17:18;;;;;;;;;1.50;1.00;;;;;7.64;72.81;97739.88;6211517;22;44592;-89
2023/01/16 06:19:47;;;;;;;;;1.00;0.00;;;;;7.68;72.75;97719.69;6235965;22;44705;-88
2023/01/16 06:22:13;;;;;;;;;0.00;0.00;;;;;7.67;72.91;97729.31;6212369;22;45336;-89
2023/01/16 06:24:42;;;;;;;;;1.75;1.00;;;;;7.65;72.95;97725.06;6211877;22;47295;-89
2023/01/16 06:27:10;;;;;;;;;0.25;0.25;;;;;7.72;72.96;97737.84;6209027;22;45446;-90
2023/01/16 06:29:48;;;;;;;;;0.00;0.00;;;;;7.69;72.33;97737.09;6209564;22;44973;-90
2023/01/16 06:32:47;;;;;;;;;;;;;;;;;;;;;
2023/01/16 06:35:15;;;;;;;;;0.00;0.00;;;;;7.79;72.49;97732.34;6215311;22;74882;-88
2023/01/16 06:37:41;;;;;;;;;0.25;0.00;;;;;7.60;72.61;97696.44;6195545;22;45513;-90
2023/01/16 06:40:09;;;;;;;;;0.50;0.00;;;;;7.58;72.39;97693.03;6223405;22;45244;-88
2023/01/16 06:42:37;;;;;;;;;0.00;0.00;;;;;7.65;72.52;97699.72;6193735;22;45254;-90
2023/01/16 06:45:09;;;;;;;;;0.00;0.00;;;;;7.71;72.66;97709.94;6219768;22;45361;-89
2023/01/16 06:47:38;;;;;;;;;0.00;0.00;;;;;7.69;72.08;97685.56;6192367;22;45506;-90
2023/01/16 06:50:06;;;;;;;;;0.00;0.00;;;;;7.77;72.27;97692.28;6190690;22;45207;-89
2023/01/16 06:52:34;;;;;;;;;1.25;1.00;;;;;7.65;71.83;97681.41;6191995;22;45359;-88
2023/01/16 06:55:00;;;;;;;;;0.50;0.50;;;;;7.55;72.34;97653.06;6192161;22;47193;-89
2023/01/16 06:57:25;;;;;;;;;1.00;1.00;;;;;7.51;72.18;97628.75;6190550;22;45217;-90
2023/01/16 06:59:51;;;;;;;;;0.00;0.00;;;;;7.50;72.25;97648.00;6192993;22;45190;-89
2023/01/16 07:02:16;;;;;;;;;0.00;0.00;;;;;7.62;72.06;97657.13;6191318;22;45629;-89
2023/01/16 07:04:42;;;;;;;;;0.00;0.00;;;;;7.66;72.44;97663.91;6192571;22;48367;-88
2023/01/16 07:07:07;;;;;;;;;0.00;0.00;;;;;7.50;72.54;97619.19;6219354;22;45295;-89
2023/01/16 07:09:33;;;;;;;;;0.25;0.00;;;;;7.55;72.62;97630.34;6218461;22;45230;-86
2023/01/16 07:29:34;;;;;;;;;0.00;0.00;;;;;7.55;72.11;97546.56;6037549;23;45360;-87
2023/01/16 07:32:02;;;;;;;;;0.00;0.00;;;;;7.73;72.09;97568.50;6038548;23;46013;-91
2023/01/16 07:34:27;;;;;;;;;0.50;0.00;;;;;7.58;72.26;97535.97;6094808;23;45459;-90
2023/01/16 07:36:53;;;;;;;;;0.00;0.00;;;;;7.64;71.96;97535.69;6146291;22;45367;-87
2023/01/16 07:39:18;;;;;;;;;1.00;0.25;;;;;7.67;71.97;97530.34;6189796;22;47122;-88
2023/01/16 07:41:46;;;;;;;;;1.00;0.00;;;;;7.74;72.16;97523.06;6189900;22;45287;-88
2023/01/16 07:44:11;;;;;;;;;0.00;0.00;;;;;7.61;72.36;97506.19;6190504;22;45217;-88
2023/01/16 07:46:37;;;;;;;;;2.00;0.00;;;;;7.60;72.57;97501.88;6189835;22;46094;-88
2023/01/16 07:49:20;;;;;;;;;0.75;0.00;;;;;7.63;72.34;97492.13;6217226;22;46113;-90
2023/01/16 07:51:45;;;;;;;;;0.00;0.00;;;;;7.74;72.28;97504.72;6194566;22;45226;-88
2023/01/16 07:54:40;;;;;;;;;0.00;0.00;;;;;7.66;72.64;97473.66;6193384;22;45145;-87
2023/01/16 07:57:41;;;;;;;;;;;;;;;;;;;;;
2023/01/16 08:00:40;;;;;;;;;;;;;;;;;;;;;
2023/01/16 08:03:14;;;;;;;;;0.00;0.00;;;;;7.74;72.66;97482.00;6208421;22;45349;-90
2023/01/16 08:09:58;;;;;;;;;0.25;0.25;;;;;7.74;72.73;97476.75;6203007;22;45356;-91
2023/01/16 08:20:07;;;;;;;;;0.00;0.00;;;;;7.63;72.89;97431.91;6115608;22;45344;-90
2023/01/16 08:23:39;;;;;;;;;1.00;0.00;;;;;7.64;73.03;97430.97;6174014;22;45078;-91
2023/01/16 08:26:58;;;;;;;;;;;;;;;;;;;;;
2023/01/16 08:52:29;;;;;;;;;;;;;;;;;;;;;
2023/01/16 08:55:06;;;;;;;;;0.00;0.00;;;;;6.56;71.63;97426.94;6099066;23;45443;-82
